Terminal Aerodrome Forecast
Issued by NWS

Home | Current Version | Previous Version | Text Only | Print | Product List | Glossary On
Versions: 1 2 3 4 5 6 7 8 9 10 11 12 13 14 15 16 17 18 19 20 21 22 23 24 25 26 27 28 29 30 31 32 33 34
613
FTAK31 PANC 131744
TAFADL
TAF
PADL 131744Z 1318/1418 35008KT 5SM -SN BR BKN010 OVC030
     FM140900 34010KT P6SM -SHRASN SCT015 BKN030
     FM141400 03008KT 6SM -SHRASN BKN015 OVC030=

USA.gov is the U.S. government's official web portal to all federal, state and local government web resources and services.